sensor_id;sensor_type;location;lat;lon;timestamp;temperature;humidity
48978;DHT22;34793;48.940;2.618;2023-02-08T00:02:06;7.80;67.00
48978;DHT22;34793;48.940;2.618;2023-02-08T00:04:31;7.70;67.20
48978;DHT22;34793;48.940;2.618;2023-02-08T00:06:57;7.70;67.40
48978;DHT22;34793;48.940;2.618;2023-02-08T00:09:23;7.60;67.70
48978;DHT22;34793;48.940;2.618;2023-02-08T00:11:48;7.50;67.50
48978;DHT22;34793;48.940;2.618;2023-02-08T00:14:13;7.60;67.10
48978;DHT22;34793;48.940;2.618;2023-02-08T00:16:39;7.60;67.20
48978;DHT22;34793;48.940;2.618;2023-02-08T00:19:04;7.50;67.50
48978;DHT22;34793;48.940;2.618;2023-02-08T00:21:30;7.50;67.80
48978;DHT22;34793;48.940;2.618;2023-02-08T00:23:55;7.40;67.70
48978;DHT22;34793;48.940;2.618;2023-02-08T00:26:21;7.40;67.70
48978;DHT22;34793;48.940;2.618;2023-02-08T00:28:48;7.30;68.30
48978;DHT22;34793;48.940;2.618;2023-02-08T00:31:13;7.20;68.30
48978;DHT22;34793;48.940;2.618;2023-02-08T00:33:39;7.30;68.30
48978;DHT22;34793;48.940;2.618;2023-02-08T00:36:05;7.20;68.20
48978;DHT22;34793;48.940;2.618;2023-02-08T00:38:30;7.30;68.10
48978;DHT22;34793;48.940;2.618;2023-02-08T00:40:56;7.40;67.90
48978;DHT22;34793;48.940;2.618;2023-02-08T00:43:21;7.40;68.10
48978;DHT22;34793;48.940;2.618;2023-02-08T00:45:51;7.40;67.60
48978;DHT22;34793;48.940;2.618;2023-02-08T00:48:17;7.40;67.50
48978;DHT22;34793;48.940;2.618;2023-02-08T00:50:42;7.30;67.60
48978;DHT22;34793;48.940;2.618;2023-02-08T00:53:08;7.30;68.10
48978;DHT22;34793;48.940;2.618;2023-02-08T00:55:33;7.20;68.00
48978;DHT22;34793;48.940;2.618;2023-02-08T00:57:59;7.20;67.70
48978;DHT22;34793;48.940;2.618;2023-02-08T01:00:27;7.10;67.90
48978;DHT22;34793;48.940;2.618;2023-02-08T01:02:53;7.20;67.60
48978;DHT22;34793;48.940;2.618;2023-02-08T01:05:18;7.20;67.30
48978;DHT22;34793;48.940;2.618;2023-02-08T01:07:43;7.20;67.60
48978;DHT22;34793;48.940;2.618;2023-02-08T01:10:09;7.20;67.30
48978;DHT22;34793;48.940;2.618;2023-02-08T01:12:36;7.20;67.40
48978;DHT22;34793;48.940;2.618;2023-02-08T01:15:02;7.20;67.30
48978;DHT22;34793;48.940;2.618;2023-02-08T01:17:28;7.20;67.20
48978;DHT22;34793;48.940;2.618;2023-02-08T01:19:53;7.20;67.20
48978;DHT22;34793;48.940;2.618;2023-02-08T01:22:19;7.20;67.10
48978;DHT22;34793;48.940;2.618;2023-02-08T01:24:44;7.10;67.00
48978;DHT22;34793;48.940;2.618;2023-02-08T01:27:09;7.10;67.20
48978;DHT22;34793;48.940;2.618;2023-02-08T01:29:35;7.10;67.30
48978;DHT22;34793;48.940;2.618;2023-02-08T01:32:01;7.00;67.60
48978;DHT22;34793;48.940;2.618;2023-02-08T01:34:26;7.00;67.40
48978;DHT22;34793;48.940;2.618;2023-02-08T01:36:51;7.00;67.00
48978;DHT22;34793;48.940;2.618;2023-02-08T01:39:17;7.10;66.90
48978;DHT22;34793;48.940;2.618;2023-02-08T01:41:43;7.10;67.30
48978;DHT22;34793;48.940;2.618;2023-02-08T01:46:37;7.10;67.00
48978;DHT22;34793;48.940;2.618;2023-02-08T01:49:05;6.70;67.90
48978;DHT22;34793;48.940;2.618;2023-02-08T01:51:33;6.50;68.30
48978;DHT22;34793;48.940;2.618;2023-02-08T01:53:59;7.10;68.20
48978;DHT22;34793;48.940;2.618;2023-02-08T01:56:27;7.00;67.50
48978;DHT22;34793;48.940;2.618;2023-02-08T01:58:54;6.70;67.80
48978;DHT22;34793;48.940;2.618;2023-02-08T02:01:21;6.60;68.00
48978;DHT22;34793;48.940;2.618;2023-02-08T02:03:46;6.60;68.40
48978;DHT22;34793;48.940;2.618;2023-02-08T02:06:14;6.50;68.50
48978;DHT22;34793;48.940;2.618;2023-02-08T02:08:42;6.50;68.60
48978;DHT22;34793;48.940;2.618;2023-02-08T02:11:08;6.70;67.60
48978;DHT22;34793;48.940;2.618;2023-02-08T02:13:34;8.10;68.00
48978;DHT22;34793;48.940;2.618;2023-02-08T02:16:01;6.70;67.40
48978;DHT22;34793;48.940;2.618;2023-02-08T02:18:28;6.60;67.40
48978;DHT22;34793;48.940;2.618;2023-02-08T02:28:44;6.50;67.70
48978;DHT22;34793;48.940;2.618;2023-02-08T02:31:29;6.60;67.40
48978;DHT22;34793;48.940;2.618;2023-02-08T02:34:12;6.60;67.50
48978;DHT22;34793;48.940;2.618;2023-02-08T02:36:50;6.70;67.10
48978;DHT22;34793;48.940;2.618;2023-02-08T02:42:06;6.80;66.80
48978;DHT22;34793;48.940;2.618;2023-02-08T02:44:55;6.60;67.30
48978;DHT22;34793;48.940;2.618;2023-02-08T02:52:40;6.50;67.70
48978;DHT22;34793;48.940;2.618;2023-02-08T02:55:09;6.50;67.70
48978;DHT22;34793;48.940;2.618;2023-02-08T02:57:36;6.70;67.60
48978;DHT22;34793;48.940;2.618;2023-02-08T03:00:06;6.50;68.30
48978;DHT22;34793;48.940;2.618;2023-02-08T03:02:32;6.20;69.20
48978;DHT22;34793;48.940;2.618;2023-02-08T03:04:57;6.20;69.20
48978;DHT22;34793;48.940;2.618;2023-02-08T03:07:39;6.20;69.00
48978;DHT22;34793;48.940;2.618;2023-02-08T03:10:32;6.10;68.90
48978;DHT22;34793;48.940;2.618;2023-02-08T03:12:56;6.10;69.00
48978;DHT22;34793;48.940;2.618;2023-02-08T03:15:37;6.10;69.60
48978;DHT22;34793;48.940;2.618;2023-02-08T03:18:13;6.00;69.70
48978;DHT22;34793;48.940;2.618;2023-02-08T03:20:43;6.00;69.20
48978;DHT22;34793;48.940;2.618;2023-02-08T03:23:23;6.20;68.70
48978;DHT22;34793;48.940;2.618;2023-02-08T03:26:02;6.20;68.30
48978;DHT22;34793;48.940;2.618;2023-02-08T03:28:39;6.10;68.40
48978;DHT22;34793;48.940;2.618;2023-02-08T03:39:03;6.20;67.70
48978;DHT22;34793;48.940;2.618;2023-02-08T03:41:31;6.20;67.60
48978;DHT22;34793;48.940;2.618;2023-02-08T03:44:02;6.20;68.20
48978;DHT22;34793;48.940;2.618;2023-02-08T03:46:31;6.10;68.10
48978;DHT22;34793;48.940;2.618;2023-02-08T03:48:58;5.90;68.60
48978;DHT22;34793;48.940;2.618;2023-02-08T03:51:25;5.60;69.30
48978;DHT22;34793;48.940;2.618;2023-02-08T03:53:52;5.70;69.00
48978;DHT22;34793;48.940;2.618;2023-02-08T03:56:19;5.60;68.60
48978;DHT22;34793;48.940;2.618;2023-02-08T03:58:47;5.60;69.40
48978;DHT22;34793;48.940;2.618;2023-02-08T04:01:20;5.60;68.90
48978;DHT22;34793;48.940;2.618;2023-02-08T04:03:48;5.80;68.30
48978;DHT22;34793;48.940;2.618;2023-02-08T04:06:15;6.00;67.50
48978;DHT22;34793;48.940;2.618;2023-02-08T04:08:40;5.80;68.10
48978;DHT22;34793;48.940;2.618;2023-02-08T04:11:06;5.80;67.90
48978;DHT22;34793;48.940;2.618;2023-02-08T04:13:31;5.80;68.00
48978;DHT22;34793;48.940;2.618;2023-02-08T04:15:57;5.90;67.90
48978;DHT22;34793;48.940;2.618;2023-02-08T04:18:22;5.80;68.00
48978;DHT22;34793;48.940;2.618;2023-02-08T04:20:48;6.70;68.10
48978;DHT22;34793;48.940;2.618;2023-02-08T04:23:13;5.80;68.10
48978;DHT22;34793;48.940;2.618;2023-02-08T04:25:39;6.00;67.80
48978;DHT22;34793;48.940;2.618;2023-02-08T04:28:04;6.10;67.60
48978;DHT22;34793;48.940;2.618;2023-02-08T04:30:30;5.70;68.80
48978;DHT22;34793;48.940;2.618;2023-02-08T04:32:55;5.80;68.50
48978;DHT22;34793;48.940;2.618;2023-02-08T04:35:21;5.80;68.30
48978;DHT22;34793;48.940;2.618;2023-02-08T04:37:46;5.80;68.20
48978;DHT22;34793;48.940;2.618;2023-02-08T04:40:11;6.00;67.90
48978;DHT22;34793;48.940;2.618;2023-02-08T04:42:37;6.00;67.60
48978;DHT22;34793;48.940;2.618;2023-02-08T04:45:02;6.00;67.60
48978;DHT22;34793;48.940;2.618;2023-02-08T04:47:28;5.90;67.50
48978;DHT22;34793;48.940;2.618;2023-02-08T04:49:53;5.90;67.50
48978;DHT22;34793;48.940;2.618;2023-02-08T04:52:19;6.20;67.00
48978;DHT22;34793;48.940;2.618;2023-02-08T04:54:44;6.00;67.00
48978;DHT22;34793;48.940;2.618;2023-02-08T04:57:13;5.70;67.60
48978;DHT22;34793;48.940;2.618;2023-02-08T04:59:39;5.70;67.50
48978;DHT22;34793;48.940;2.618;2023-02-08T05:02:04;5.70;67.40
48978;DHT22;34793;48.940;2.618;2023-02-08T05:04:30;5.60;68.50
48978;DHT22;34793;48.940;2.618;2023-02-08T05:06:55;5.70;67.60
48978;DHT22;34793;48.940;2.618;2023-02-08T05:09:21;5.60;67.90
48978;DHT22;34793;48.940;2.618;2023-02-08T05:11:46;5.60;67.60
48978;DHT22;34793;48.940;2.618;2023-02-08T05:14:12;5.80;67.70
48978;DHT22;34793;48.940;2.618;2023-02-08T05:16:37;5.80;67.60
48978;DHT22;34793;48.940;2.618;2023-02-08T05:19:03;5.70;67.60
48978;DHT22;34793;48.940;2.618;2023-02-08T05:21:28;5.80;68.10
48978;DHT22;34793;48.940;2.618;2023-02-08T05:23:54;5.70;67.60
48978;DHT22;34793;48.940;2.618;2023-02-08T05:26:21;5.70;67.20
48978;DHT22;34793;48.940;2.618;2023-02-08T05:28:47;5.70;67.40
48978;DHT22;34793;48.940;2.618;2023-02-08T05:31:19;5.60;67.70
48978;DHT22;34793;48.940;2.618;2023-02-08T05:33:45;5.70;67.80
48978;DHT22;34793;48.940;2.618;2023-02-08T05:36:10;5.70;67.90
48978;DHT22;34793;48.940;2.618;2023-02-08T05:38:36;5.70;67.70
48978;DHT22;34793;48.940;2.618;2023-02-08T05:41:02;5.60;67.90
48978;DHT22;34793;48.940;2.618;2023-02-08T05:43:27;5.60;68.10
48978;DHT22;34793;48.940;2.618;2023-02-08T05:45:53;5.70;68.00
48978;DHT22;34793;48.940;2.618;2023-02-08T05:48:18;5.70;67.80
48978;DHT22;34793;48.940;2.618;2023-02-08T05:50:44;5.70;68.00
48978;DHT22;34793;48.940;2.618;2023-02-08T05:53:09;5.70;68.20
48978;DHT22;34793;48.940;2.618;2023-02-08T05:55:35;5.70;68.20
48978;DHT22;34793;48.940;2.618;2023-02-08T05:58:00;5.60;67.70
48978;DHT22;34793;48.940;2.618;2023-02-08T06:00:26;5.60;67.60
48978;DHT22;34793;48.940;2.618;2023-02-08T06:02:51;5.60;67.70
48978;DHT22;34793;48.940;2.618;2023-02-08T06:05:17;5.60;68.30
48978;DHT22;34793;48.940;2.618;2023-02-08T06:07:42;5.60;68.10
48978;DHT22;34793;48.940;2.618;2023-02-08T06:10:07;6.30;68.00
48978;DHT22;34793;48.940;2.618;2023-02-08T06:12:33;5.60;67.50
48978;DHT22;34793;48.940;2.618;2023-02-08T06:14:58;5.60;67.50
48978;DHT22;34793;48.940;2.618;2023-02-08T06:17:24;5.50;68.80
48978;DHT22;34793;48.940;2.618;2023-02-08T06:19:49;5.60;68.20
48978;DHT22;34793;48.940;2.618;2023-02-08T06:22:15;5.60;67.90
48978;DHT22;34793;48.940;2.618;2023-02-08T06:24:40;5.60;68.10
48978;DHT22;34793;48.940;2.618;2023-02-08T06:27:06;5.40;68.40
48978;DHT22;34793;48.940;2.618;2023-02-08T06:29:31;5.50;67.80
48978;DHT22;34793;48.940;2.618;2023-02-08T06:31:57;5.40;68.00
48978;DHT22;34793;48.940;2.618;2023-02-08T06:34:22;5.30;67.90
48978;DHT22;34793;48.940;2.618;2023-02-08T06:36:48;5.30;67.80
48978;DHT22;34793;48.940;2.618;2023-02-08T06:39:13;5.10;68.30
48978;DHT22;34793;48.940;2.618;2023-02-08T06:41:39;5.20;67.90
48978;DHT22;34793;48.940;2.618;2023-02-08T06:44:04;5.10;68.30
48978;DHT22;34793;48.940;2.618;2023-02-08T06:46:30;5.00;68.40
48978;DHT22;34793;48.940;2.618;2023-02-08T06:48:55;5.10;68.20
48978;DHT22;34793;48.940;2.618;2023-02-08T06:51:22;5.10;68.00
48978;DHT22;34793;48.940;2.618;2023-02-08T06:53:47;5.00;68.50
48978;DHT22;34793;48.940;2.618;2023-02-08T06:56:13;5.20;67.90
48978;DHT22;34793;48.940;2.618;2023-02-08T06:58:38;5.20;67.20
48978;DHT22;34793;48.940;2.618;2023-02-08T07:01:04;5.10;68.40
48978;DHT22;34793;48.940;2.618;2023-02-08T07:03:29;5.00;68.20
48978;DHT22;34793;48.940;2.618;2023-02-08T07:05:55;4.90;68.20
48978;DHT22;34793;48.940;2.618;2023-02-08T07:08:20;4.90;68.60
48978;DHT22;34793;48.940;2.618;2023-02-08T07:10:46;4.90;68.50
48978;DHT22;34793;48.940;2.618;2023-02-08T07:13:12;4.80;68.30
48978;DHT22;34793;48.940;2.618;2023-02-08T07:15:38;4.80;68.60
48978;DHT22;34793;48.940;2.618;2023-02-08T07:18:03;5.00;68.00
48978;DHT22;34793;48.940;2.618;2023-02-08T07:20:29;4.70;69.10
48978;DHT22;34793;48.940;2.618;2023-02-08T07:22:54;4.70;69.00
48978;DHT22;34793;48.940;2.618;2023-02-08T07:25:21;4.60;69.60
48978;DHT22;34793;48.940;2.618;2023-02-08T07:27:46;4.70;69.20
48978;DHT22;34793;48.940;2.618;2023-02-08T07:30:12;4.70;69.10
48978;DHT22;34793;48.940;2.618;2023-02-08T07:32:37;5.00;68.50
48978;DHT22;34793;48.940;2.618;2023-02-08T07:35:03;4.90;68.80
48978;DHT22;34793;48.940;2.618;2023-02-08T07:37:28;4.80;69.20
48978;DHT22;34793;48.940;2.618;2023-02-08T07:39:54;5.00;68.50
48978;DHT22;34793;48.940;2.618;2023-02-08T07:42:20;5.10;68.90
48978;DHT22;34793;48.940;2.618;2023-02-08T07:44:46;5.00;68.60
48978;DHT22;34793;48.940;2.618;2023-02-08T07:47:11;5.10;68.40
48978;DHT22;34793;48.940;2.618;2023-02-08T07:49:37;5.20;67.70
48978;DHT22;34793;48.940;2.618;2023-02-08T07:52:02;5.30;67.80
48978;DHT22;34793;48.940;2.618;2023-02-08T07:54:28;5.40;67.70
48978;DHT22;34793;48.940;2.618;2023-02-08T07:56:54;5.20;68.20
48978;DHT22;34793;48.940;2.618;2023-02-08T07:59:19;5.20;68.80
48978;DHT22;34793;48.940;2.618;2023-02-08T08:01:45;4.90;69.40
48978;DHT22;34793;48.940;2.618;2023-02-08T08:04:10;5.00;69.60
48978;DHT22;34793;48.940;2.618;2023-02-08T08:06:36;5.00;69.60
48978;DHT22;34793;48.940;2.618;2023-02-08T08:09:02;5.10;69.50
48978;DHT22;34793;48.940;2.618;2023-02-08T08:11:28;4.90;69.30
48978;DHT22;34793;48.940;2.618;2023-02-08T08:13:53;4.80;70.20
48978;DHT22;34793;48.940;2.618;2023-02-08T08:16:19;4.90;70.10
48978;DHT22;34793;48.940;2.618;2023-02-08T08:18:45;4.70;70.80
48978;DHT22;34793;48.940;2.618;2023-02-08T08:21:10;5.00;70.10
48978;DHT22;34793;48.940;2.618;2023-02-08T08:23:36;5.00;70.20
48978;DHT22;34793;48.940;2.618;2023-02-08T08:26:10;5.10;70.40
48978;DHT22;34793;48.940;2.618;2023-02-08T08:28:38;5.20;70.60
48978;DHT22;34793;48.940;2.618;2023-02-08T08:31:08;5.20;71.70
48978;DHT22;34793;48.940;2.618;2023-02-08T08:33:33;5.20;71.50
48978;DHT22;34793;48.940;2.618;2023-02-08T08:35:59;5.00;72.30
48978;DHT22;34793;48.940;2.618;2023-02-08T08:38:24;5.00;72.50
48978;DHT22;34793;48.940;2.618;2023-02-08T08:40:50;5.00;72.80
48978;DHT22;34793;48.940;2.618;2023-02-08T08:43:15;5.00;73.00
48978;DHT22;34793;48.940;2.618;2023-02-08T08:45:41;5.20;72.90
48978;DHT22;34793;48.940;2.618;2023-02-08T08:48:06;5.30;72.60
48978;DHT22;34793;48.940;2.618;2023-02-08T08:50:32;5.30;72.40
48978;DHT22;34793;48.940;2.618;2023-02-08T08:52:57;5.30;72.90
48978;DHT22;34793;48.940;2.618;2023-02-08T08:55:23;5.20;72.90
48978;DHT22;34793;48.940;2.618;2023-02-08T08:57:50;5.40;73.10
48978;DHT22;34793;48.940;2.618;2023-02-08T09:00:16;5.50;73.30
48978;DHT22;34793;48.940;2.618;2023-02-08T09:02:42;5.80;72.30
48978;DHT22;34793;48.940;2.618;2023-02-08T09:05:07;5.80;72.80
48978;DHT22;34793;48.940;2.618;2023-02-08T09:07:32;6.00;72.00
48978;DHT22;34793;48.940;2.618;2023-02-08T09:09:58;5.80;72.80
48978;DHT22;34793;48.940;2.618;2023-02-08T09:12:24;5.70;73.20
48978;DHT22;34793;48.940;2.618;2023-02-08T09:14:49;5.80;73.10
48978;DHT22;34793;48.940;2.618;2023-02-08T09:17:15;5.90;73.30
48978;DHT22;34793;48.940;2.618;2023-02-08T09:19:40;5.70;73.40
48978;DHT22;34793;48.940;2.618;2023-02-08T09:22:07;5.80;73.90
48978;DHT22;34793;48.940;2.618;2023-02-08T09:24:32;5.80;73.80
48978;DHT22;34793;48.940;2.618;2023-02-08T09:26:58;5.80;74.10
48978;DHT22;34793;48.940;2.618;2023-02-08T09:29:24;6.00;73.50
48978;DHT22;34793;48.940;2.618;2023-02-08T09:31:49;6.10;72.80
48978;DHT22;34793;48.940;2.618;2023-02-08T09:34:15;6.00;72.80
48978;DHT22;34793;48.940;2.618;2023-02-08T09:36:40;6.10;73.50
48978;DHT22;34793;48.940;2.618;2023-02-08T09:39:11;5.90;73.10
48978;DHT22;34793;48.940;2.618;2023-02-08T09:46:57;6.10;72.30
48978;DHT22;34793;48.940;2.618;2023-02-08T09:49:29;6.20;72.30
48978;DHT22;34793;48.940;2.618;2023-02-08T09:51:57;6.30;71.70
48978;DHT22;34793;48.940;2.618;2023-02-08T09:54:25;6.40;71.60
48978;DHT22;34793;48.940;2.618;2023-02-08T09:56:52;6.40;71.80
48978;DHT22;34793;48.940;2.618;2023-02-08T09:59:25;6.50;71.80
48978;DHT22;34793;48.940;2.618;2023-02-08T10:01:54;6.50;71.20
48978;DHT22;34793;48.940;2.618;2023-02-08T10:04:28;6.70;71.80
48978;DHT22;34793;48.940;2.618;2023-02-08T10:06:56;6.90;70.80
48978;DHT22;34793;48.940;2.618;2023-02-08T10:09:24;6.90;70.50
48978;DHT22;34793;48.940;2.618;2023-02-08T10:14:30;6.90;70.90
48978;DHT22;34793;48.940;2.618;2023-02-08T10:17:05;6.80;70.90
48978;DHT22;34793;48.940;2.618;2023-02-08T10:22:22;7.30;73.50
48978;DHT22;34793;48.940;2.618;2023-02-08T10:27:21;7.30;69.80
48978;DHT22;34793;48.940;2.618;2023-02-08T10:37:45;8.10;69.20
48978;DHT22;34793;48.940;2.618;2023-02-08T10:42:41;8.20;69.20
48978;DHT22;34793;48.940;2.618;2023-02-08T10:52:39;9.40;66.60
48978;DHT22;34793;48.940;2.618;2023-02-08T10:55:14;9.80;64.00
48978;DHT22;34793;48.940;2.618;2023-02-08T10:57:40;9.80;62.50
48978;DHT22;34793;48.940;2.618;2023-02-08T11:00:17;10.10;62.30
48978;DHT22;34793;48.940;2.618;2023-02-08T11:02:43;10.10;61.70
48978;DHT22;34793;48.940;2.618;2023-02-08T11:05:16;10.30;61.90
48978;DHT22;34793;48.940;2.618;2023-02-08T11:07:42;10.40;61.40
48978;DHT22;34793;48.940;2.618;2023-02-08T11:12:52;11.20;60.10
48978;DHT22;34793;48.940;2.618;2023-02-08T11:15:26;11.70;61.80
48978;DHT22;34793;48.940;2.618;2023-02-08T11:17:54;12.30;60.60
48978;DHT22;34793;48.940;2.618;2023-02-08T11:20:23;12.90;60.10
48978;DHT22;34793;48.940;2.618;2023-02-08T11:22:50;13.20;57.80
48978;DHT22;34793;48.940;2.618;2023-02-08T11:25:33;13.40;56.80
48978;DHT22;34793;48.940;2.618;2023-02-08T11:27:58;13.40;58.40
48978;DHT22;34793;48.940;2.618;2023-02-08T11:30:24;13.80;55.60
48978;DHT22;34793;48.940;2.618;2023-02-08T11:33:07;14.10;55.70
48978;DHT22;34793;48.940;2.618;2023-02-08T11:35:35;14.30;57.10
48978;DHT22;34793;48.940;2.618;2023-02-08T11:38:02;14.60;55.50
48978;DHT22;34793;48.940;2.618;2023-02-08T11:40:28;14.90;56.00
48978;DHT22;34793;48.940;2.618;2023-02-08T11:42:55;15.20;54.70
48978;DHT22;34793;48.940;2.618;2023-02-08T11:45:22;15.30;55.40
48978;DHT22;34793;48.940;2.618;2023-02-08T11:47:48;15.10;53.50
48978;DHT22;34793;48.940;2.618;2023-02-08T11:50:23;15.20;53.10
48978;DHT22;34793;48.940;2.618;2023-02-08T11:53:24;15.30;54.20
48978;DHT22;34793;48.940;2.618;2023-02-08T11:55:41;15.20;51.50
48978;DHT22;34793;48.940;2.618;2023-02-08T12:00:41;15.10;52.00
48978;DHT22;34793;48.940;2.618;2023-02-08T12:03:23;15.00;53.60
48978;DHT22;34793;48.940;2.618;2023-02-08T12:13:48;15.00;52.20
48978;DHT22;34793;48.940;2.618;2023-02-08T12:16:24;15.40;54.60
48978;DHT22;34793;48.940;2.618;2023-02-08T12:21:26;15.70;50.80
48978;DHT22;34793;48.940;2.618;2023-02-08T12:39:42;15.80;50.90
48978;DHT22;34793;48.940;2.618;2023-02-08T12:42:37;15.60;50.80
48978;DHT22;34793;48.940;2.618;2023-02-08T12:47:53;15.60;50.80
48978;DHT22;34793;48.940;2.618;2023-02-08T12:52:56;15.90;51.20
48978;DHT22;34793;48.940;2.618;2023-02-08T12:55:35;15.80;49.70
48978;DHT22;34793;48.940;2.618;2023-02-08T12:58:23;15.80;47.80
48978;DHT22;34793;48.940;2.618;2023-02-08T13:00:50;15.50;49.20
48978;DHT22;34793;48.940;2.618;2023-02-08T13:03:30;15.60;48.60
48978;DHT22;34793;48.940;2.618;2023-02-08T13:05:57;15.50;50.40
48978;DHT22;34793;48.940;2.618;2023-02-08T13:10:48;15.40;49.60
48978;DHT22;34793;48.940;2.618;2023-02-08T13:15:44;15.30;49.90
48978;DHT22;34793;48.940;2.618;2023-02-08T13:18:11;15.50;49.40
48978;DHT22;34793;48.940;2.618;2023-02-08T13:20:46;15.30;49.70
48978;DHT22;34793;48.940;2.618;2023-02-08T13:25:41;15.40;48.00
48978;DHT22;34793;48.940;2.618;2023-02-08T13:28:07;15.40;49.40
48978;DHT22;34793;48.940;2.618;2023-02-08T13:30:36;15.30;48.90
48978;DHT22;34793;48.940;2.618;2023-02-08T13:33:11;15.40;48.30
48978;DHT22;34793;48.940;2.618;2023-02-08T13:35:38;15.40;48.20
48978;DHT22;34793;48.940;2.618;2023-02-08T13:38:05;15.50;48.90
48978;DHT22;34793;48.940;2.618;2023-02-08T13:40:32;15.50;48.10
48978;DHT22;34793;48.940;2.618;2023-02-08T13:43:05;15.20;47.60
48978;DHT22;34793;48.940;2.618;2023-02-08T13:45:36;15.20;49.00
48978;DHT22;34793;48.940;2.618;2023-02-08T13:48:04;15.00;48.60
48978;DHT22;34793;48.940;2.618;2023-02-08T13:52:59;15.10;48.60
48978;DHT22;34793;48.940;2.618;2023-02-08T13:58:01;14.50;49.70
48978;DHT22;34793;48.940;2.618;2023-02-08T14:00:33;14.50;51.10
48978;DHT22;34793;48.940;2.618;2023-02-08T14:05:47;14.50;51.50
48978;DHT22;34793;48.940;2.618;2023-02-08T14:08:16;14.50;50.80
48978;DHT22;34793;48.940;2.618;2023-02-08T14:10:45;14.50;51.50
48978;DHT22;34793;48.940;2.618;2023-02-08T14:18:39;14.50;50.90
48978;DHT22;34793;48.940;2.618;2023-02-08T14:21:21;14.50;51.60
48978;DHT22;34793;48.940;2.618;2023-02-08T14:23:48;14.30;51.10
48978;DHT22;34793;48.940;2.618;2023-02-08T14:26:23;14.40;50.60
48978;DHT22;34793;48.940;2.618;2023-02-08T14:28:52;14.20;50.50
48978;DHT22;34793;48.940;2.618;2023-02-08T14:31:18;14.10;51.60
48978;DHT22;34793;48.940;2.618;2023-02-08T14:33:51;14.00;51.10
48978;DHT22;34793;48.940;2.618;2023-02-08T14:36:27;13.80;50.80
48978;DHT22;34793;48.940;2.618;2023-02-08T14:41:41;13.90;51.30
48978;DHT22;34793;48.940;2.618;2023-02-08T14:46:51;14.00;50.60
48978;DHT22;34793;48.940;2.618;2023-02-08T14:49:17;13.90;50.30
48978;DHT22;34793;48.940;2.618;2023-02-08T14:51:44;13.60;51.80
48978;DHT22;34793;48.940;2.618;2023-02-08T14:54:22;13.50;51.70
48978;DHT22;34793;48.940;2.618;2023-02-08T14:56:59;13.70;51.80
48978;DHT22;34793;48.940;2.618;2023-02-08T14:59:26;13.60;52.20
48978;DHT22;34793;48.940;2.618;2023-02-08T15:01:54;13.40;52.30
48978;DHT22;34793;48.940;2.618;2023-02-08T15:04:20;13.30;52.40
48978;DHT22;34793;48.940;2.618;2023-02-08T15:09:31;12.90;52.50
48978;DHT22;34793;48.940;2.618;2023-02-08T15:14:34;12.80;53.30
48978;DHT22;34793;48.940;2.618;2023-02-08T15:17:00;12.90;52.50
48978;DHT22;34793;48.940;2.618;2023-02-08T15:19:30;12.90;53.30
48978;DHT22;34793;48.940;2.618;2023-02-08T15:24:49;13.00;52.70
48978;DHT22;34793;48.940;2.618;2023-02-08T15:27:23;13.10;52.80
48978;DHT22;34793;48.940;2.618;2023-02-08T15:29:49;13.40;52.00
48978;DHT22;34793;48.940;2.618;2023-02-08T15:32:20;13.50;52.10
48978;DHT22;34793;48.940;2.618;2023-02-08T15:34:48;13.30;52.00
48978;DHT22;34793;48.940;2.618;2023-02-08T15:37:14;13.40;52.60
48978;DHT22;34793;48.940;2.618;2023-02-08T15:39:41;13.50;51.80
48978;DHT22;34793;48.940;2.618;2023-02-08T15:42:20;13.50;51.60
48978;DHT22;34793;48.940;2.618;2023-02-08T15:44:46;13.40;51.40
48978;DHT22;34793;48.940;2.618;2023-02-08T15:47:16;13.40;52.30
48978;DHT22;34793;48.940;2.618;2023-02-08T15:49:43;13.40;51.50
48978;DHT22;34793;48.940;2.618;2023-02-08T15:52:17;13.30;52.00
48978;DHT22;34793;48.940;2.618;2023-02-08T15:54:44;13.30;51.50
48978;DHT22;34793;48.940;2.618;2023-02-08T15:57:31;13.40;51.90
48978;DHT22;34793;48.940;2.618;2023-02-08T15:59:58;13.30;52.10
48978;DHT22;34793;48.940;2.618;2023-02-08T16:02:31;13.30;52.40
48978;DHT22;34793;48.940;2.618;2023-02-08T16:04:57;13.20;52.40
48978;DHT22;34793;48.940;2.618;2023-02-08T16:09:51;13.30;52.20
48978;DHT22;34793;48.940;2.618;2023-02-08T16:12:21;13.40;52.30
48978;DHT22;34793;48.940;2.618;2023-02-08T16:14:47;13.30;52.30
48978;DHT22;34793;48.940;2.618;2023-02-08T16:20:24;13.30;52.30
48978;DHT22;34793;48.940;2.618;2023-02-08T16:25:22;13.70;52.60
48978;DHT22;34793;48.940;2.618;2023-02-08T16:27:48;13.70;52.30
48978;DHT22;34793;48.940;2.618;2023-02-08T16:30:17;13.70;52.70
48978;DHT22;34793;48.940;2.618;2023-02-08T16:32:43;13.70;53.00
48978;DHT22;34793;48.940;2.618;2023-02-08T16:35:12;13.80;53.00
48978;DHT22;34793;48.940;2.618;2023-02-08T16:37:38;13.90;52.90
48978;DHT22;34793;48.940;2.618;2023-02-08T16:40:06;13.80;53.00
48978;DHT22;34793;48.940;2.618;2023-02-08T16:42:36;13.80;53.00
48978;DHT22;34793;48.940;2.618;2023-02-08T16:47:46;13.40;53.40
48978;DHT22;34793;48.940;2.618;2023-02-08T16:50:14;13.30;53.70
48978;DHT22;34793;48.940;2.618;2023-02-08T16:52:39;13.30;53.60
48978;DHT22;34793;48.940;2.618;2023-02-08T16:55:05;13.30;53.70
48978;DHT22;34793;48.940;2.618;2023-02-08T16:57:43;13.10;53.60
48978;DHT22;34793;48.940;2.618;2023-02-08T17:00:26;12.80;54.40
48978;DHT22;34793;48.940;2.618;2023-02-08T17:02:52;12.80;53.70
48978;DHT22;34793;48.940;2.618;2023-02-08T17:05:18;12.60;53.60
48978;DHT22;34793;48.940;2.618;2023-02-08T17:07:44;12.60;54.30
48978;DHT22;34793;48.940;2.618;2023-02-08T17:10:13;12.30;54.80
48978;DHT22;34793;48.940;2.618;2023-02-08T17:12:40;12.30;53.70
48978;DHT22;34793;48.940;2.618;2023-02-08T17:15:05;12.30;54.00
48978;DHT22;34793;48.940;2.618;2023-02-08T17:17:31;12.00;53.70
48978;DHT22;34793;48.940;2.618;2023-02-08T17:19:56;11.70;54.50
48978;DHT22;34793;48.940;2.618;2023-02-08T17:22:22;11.90;54.80
48978;DHT22;34793;48.940;2.618;2023-02-08T17:24:47;11.80;53.80
48978;DHT22;34793;48.940;2.618;2023-02-08T17:27:13;11.80;55.00
48978;DHT22;34793;48.940;2.618;2023-02-08T17:29:39;11.90;55.00
48978;DHT22;34793;48.940;2.618;2023-02-08T17:32:05;11.90;55.40
48978;DHT22;34793;48.940;2.618;2023-02-08T17:34:30;11.90;55.40
48978;DHT22;34793;48.940;2.618;2023-02-08T17:36:56;11.90;55.10
48978;DHT22;34793;48.940;2.618;2023-02-08T17:39:21;11.80;55.70
48978;DHT22;34793;48.940;2.618;2023-02-08T17:41:46;11.70;55.50
48978;DHT22;34793;48.940;2.618;2023-02-08T17:44:12;11.40;55.90
48978;DHT22;34793;48.940;2.618;2023-02-08T17:46:39;11.30;55.90
48978;DHT22;34793;48.940;2.618;2023-02-08T17:49:04;12.00;56.20
48978;DHT22;34793;48.940;2.618;2023-02-08T17:51:30;11.40;56.30
48978;DHT22;34793;48.940;2.618;2023-02-08T17:53:56;11.50;56.30
48978;DHT22;34793;48.940;2.618;2023-02-08T17:56:22;11.50;56.30
48978;DHT22;34793;48.940;2.618;2023-02-08T17:58:48;11.50;56.60
48978;DHT22;34793;48.940;2.618;2023-02-08T18:01:24;11.50;56.50
48978;DHT22;34793;48.940;2.618;2023-02-08T18:03:50;11.40;56.50